»·PEaware :: JBU1635 KSFO-KLGB

JBU1635 :: KSFO-KLGB

FLIGHT INFORMATION

Flight Status: Arrived
Operator:
JetBlue Airways
More flights by this operator :: More flights under this callsign
Pilot: Ulrik N. (13596)
Aircraft: AIRBUS A320
(A320)
More flights by this aircraft type
Origin: KSFO San Francisco Intl
United States
Destination: KLGB Long Beach
United States
More flights between these airports :: More routes between these airports
Route: OFFSH1 MCKEY TILLT BAUBB1
File this flight plan on PilotEdge
Remarks:
Altitude:
(Current/Filed)
33,000ft
Speed:
(Current/Filed)
460kts
Departed: 08-Oct-18 06:57 PM
Arrived: 08-Oct-18 07:59 PM
Distance/Time
Traveled:
307nm/1:02
Distance/Time
To Go:
Arrived

Flight Plot

Page will automatically refresh every two minutes.

Flight plan parsing failed; only flown route is shown


Map Options




Map Legend


Flown Route
Filed Route
Departure Airport
Arrival Airport
Navaid (VOR, NDB)
Fix

Horizontal Profiles

Position Reports

Time Latitude Longitude Heading Altitude Ground
Speed
08-Oct-18 18:43 37.613761 -122.389493 115 21ft 0kts
08-Oct-18 18:44 37.613761 -122.389493 115 21ft 0kts
08-Oct-18 18:45 37.613761 -122.389494 115 21ft 0kts
08-Oct-18 18:46 37.613761 -122.389494 115 21ft 0kts
08-Oct-18 18:47 37.613761 -122.389494 115 21ft 0kts
08-Oct-18 18:48 37.613761 -122.389494 115 21ft 0kts
08-Oct-18 18:49 37.613761 -122.389494 115 21ft 0kts
08-Oct-18 18:50 37.613835 -122.389689 107 21ft 2kts
08-Oct-18 18:51 37.613590 -122.390348 53 21ft 2kts
08-Oct-18 18:52 37.613762 -122.390802 162 21ft 0kts
08-Oct-18 18:53 37.613761 -122.390801 162 21ft 0kts
08-Oct-18 18:54 37.612974 -122.391148 207 21ft 8kts
08-Oct-18 18:55 37.611032 -122.391391 139 21ft 12kts
08-Oct-18 18:56 37.610803 -122.387192 117 21ft 14kts
08-Oct-18 18:57 37.609010 -122.383282 120 21ft 0kts
08-Oct-18 18:58 37.608959 -122.383174 120 21ft 4kts
08-Oct-18 18:59 37.620499 -122.374591 27 22ft 157kts
08-Oct-18 19:00 37.665687 -122.361675 357 2533ft 188kts
08-Oct-18 19:01 37.711954 -122.391629 277 4933ft 240kts
08-Oct-18 19:02 37.665407 -122.460693 217 7553ft 294kts
08-Oct-18 19:03 37.595392 -122.519874 217 10291ft 319kts
08-Oct-18 19:04 37.514464 -122.590612 217 11500ft 385kts
08-Oct-18 19:05 37.423458 -122.667474 201 13675ft 405kts
08-Oct-18 19:06 37.310948 -122.655431 167 15665ft 419kts
08-Oct-18 19:07 37.195322 -122.627563 167 17478ft 433kts
08-Oct-18 19:08 37.075456 -122.598933 168 19133ft 446kts
08-Oct-18 19:09 36.952358 -122.569596 168 20764ft 455kts
08-Oct-18 19:10 36.828176 -122.537109 167 22203ft 464kts
08-Oct-18 19:11 36.700589 -122.503985 167 23529ft 472kts
08-Oct-18 19:12 36.571431 -122.470597 167 24727ft 480kts
08-Oct-18 19:13 36.441371 -122.430291 152 25808ft 487kts
08-Oct-18 19:14 36.346099 -122.320968 127 26755ft 487kts
08-Oct-18 19:15 36.258004 -122.192229 127 27691ft 494kts
08-Oct-18 19:16 36.168268 -122.061927 127 28618ft 499kts
08-Oct-18 19:17 36.078467 -121.932008 127 29784ft 497kts
08-Oct-18 19:18 35.988869 -121.802898 127 30888ft 496kts
08-Oct-18 19:19 35.899621 -121.674778 127 31945ft 495kts
08-Oct-18 19:20 35.810522 -121.547352 127 32828ft 494kts
08-Oct-18 19:21 35.720972 -121.419761 127 32865ft 493kts
08-Oct-18 19:22 35.634423 -121.296851 128 32868ft 494kts
08-Oct-18 19:23 35.544565 -121.169841 128 32865ft 494kts
08-Oct-18 19:24 35.464310 -121.034521 113 32842ft 492kts
08-Oct-18 19:25 35.369559 -120.910048 136 32878ft 509kts
08-Oct-18 19:26 35.263931 -120.796052 136 32912ft 511kts
08-Oct-18 19:27 35.157321 -120.681444 136 32917ft 511kts
08-Oct-18 19:28 35.050706 -120.567964 139 32914ft 512kts
08-Oct-18 19:29 34.933310 -120.470831 145 32943ft 510kts
08-Oct-18 19:30 34.816654 -120.376499 145 32931ft 503kts
08-Oct-18 19:31 34.733275 -120.309313 146 32869ft 499kts
08-Oct-18 19:32 34.621127 -120.219343 146 32845ft 497kts
08-Oct-18 19:33 34.505647 -120.127107 146 32843ft 498kts
08-Oct-18 19:34 34.390195 -120.035189 146 32863ft 499kts
08-Oct-18 19:35 34.274433 -119.943331 145 32414ft 502kts
08-Oct-18 19:36 34.158010 -119.851257 145 31111ft 499kts
08-Oct-18 19:37 34.055606 -119.746760 118 29265ft 474kts
08-Oct-18 19:38 33.988899 -119.613512 117 27486ft 457kts
08-Oct-18 19:39 33.925417 -119.487285 117 25075ft 420kts
08-Oct-18 19:40 33.868594 -119.373241 116 23192ft 396kts
08-Oct-18 19:41 33.850054 -119.335525 117 22554ft 394kts
08-Oct-18 19:42 33.800344 -119.234724 117 20831ft 388kts
08-Oct-18 19:43 33.745875 -119.124621 118 18922ft 381kts
08-Oct-18 19:44 33.692498 -119.017057 118 17045ft 372kts
08-Oct-18 19:45 33.640120 -118.911814 119 15167ft 364kts
08-Oct-18 19:46 33.589051 -118.809493 120 13366ft 353kts
08-Oct-18 19:47 33.559950 -118.701927 100 11684ft 339kts
08-Oct-18 19:48 33.542466 -118.593461 100 10271ft 319kts
08-Oct-18 19:49 33.526481 -118.494728 100 9287ft 294kts
08-Oct-18 19:50 33.519991 -118.398636 91 7958ft 286kts
08-Oct-18 19:51 33.522785 -118.317742 68 6881ft 248kts
08-Oct-18 19:52 33.546573 -118.243615 68 5697ft 237kts
08-Oct-18 19:53 33.569810 -118.170852 69 4765ft 231kts
08-Oct-18 19:54 33.592249 -118.100943 69 4060ft 219kts
08-Oct-18 19:55 33.630934 -118.058416 11 3707ft 196kts
08-Oct-18 19:56 33.683235 -118.051485 4 2474ft 172kts
08-Oct-18 19:57 33.727055 -118.047730 343 1604ft 152kts
08-Oct-18 19:58 33.758545 -118.079810 313 1495ft 151kts
08-Oct-18 19:59 33.787286 -118.114424 312 718ft 147kts
08-Oct-18 20:00 33.815311 -118.148434 316 42ft 107kts
08-Oct-18 20:01 33.822113 -118.154610 128 52ft 4kts
08-Oct-18 20:02 33.821620 -118.148652 90 46ft 23kts
08-Oct-18 20:03 33.819499 -118.146827 138 42ft 6kts
08-Oct-18 20:04 33.819031 -118.146258 134 41ft 0kts
08-Oct-18 20:05 33.819031 -118.146258 134 41ft 0kts
08-Oct-18 20:06 33.819031 -118.146258 134 41ft 0kts
08-Oct-18 20:07 33.819031 -118.146258 134 41ft 0kts
08-Oct-18 20:08 33.819031 -118.146258 134 41ft 0kts
08-Oct-18 20:09 33.819031 -118.146258 134 41ft 0kts

Navigation Log

Ident Type
Flight plan parsing failed, navigation log unavailable